CSCL Long Beach — VRCZ7 — position and weather

sailwx.info

Track history (hours):
 
Tides and Currents Weather Stations Pressure Air Temp Water Temp Dewpoint Dewpoint Depression Visibility Wind Speed Wind Dir Waves Ship Positions

CSCL Long Beach

Last reported at 2016-Jul-14 01:21 UTC. Time now 2016-Jul-24 02:56 UTC.
Position N 22°17' E 114°06'.
Warning: this ship's position is 10 days out of date.

Length 336.7 m; beam 45.6 m; draft 15 m.

Type: Ship. MMSI: 477883900.

Date/timePositionNaut miles runAvg speedWind from/ knotsBaromVisibWave heightAir tempDewpointWater temp
2016-Jul-14 01:21N 22°17' E 114°06'3 3.4
2016-Jul-14 00:28N 22°20' E 114°08'0 0.0
2016-Jul-13 22:16N 22°20' E 114°08'0 0.0
2016-Jul-13 21:04N 22°20' E 114°08'0 0.0
2016-Jul-13 20:16N 22°20' E 114°08'0 0.0
2016-Jul-13 19:28N 22°20' E 114°08'0 0.0
2016-Jul-13 16:28N 22°20' E 114°08'0 0.0
2016-Jul-13 15:28N 22°20' E 114°08'0 0.0
2016-Jul-13 14:10N 22°20' E 114°08'0 0.0
2016-Jul-13 12:28N 22°20' E 114°08'0 0.0
2016-Jul-13 11:22N 22°20' E 114°08'0 0.0
2016-Jul-13 06:04N 22°20' E 114°08'0 0.0
2016-Jul-13 05:33N 22°20' E 114°08'14 7.0
2016-Jul-13 03:33N 22°25' E 113°53'3 2.6
2016-Jul-13 02:18N 22°28' E 113°53'0 0.0
2016-Jul-13 01:30N 22°28' E 113°53'0 0.0
2016-Jul-12 23:30N 22°28' E 113°53'0 0.0
2016-Jul-12 22:18N 22°28' E 113°53'0 0.0
2016-Jul-12 21:30N 22°28' E 113°53'0 0.0
2016-Jul-12 20:24N 22°28' E 113°53'0 0.0
2016-Jul-12 19:24N 22°28' E 113°53'0 0.0
2016-Jul-12 18:30N 22°28' E 113°53'0 0.0
2016-Jul-12 17:30N 22°28' E 113°53'0 0.0
2016-Jul-12 16:06N 22°28' E 113°53'0 0.0
2016-Jul-12 15:24N 22°28' E 113°53'0 0.0
2016-Jul-12 14:24N 22°28' E 113°53'0 0.0
2016-Jul-12 13:30N 22°28' E 113°53'0 0.0
2016-Jul-12 12:24N 22°28' E 113°53'0 0.0
2016-Jul-12 11:24N 22°28' E 113°53'0 0.0
2016-Jul-12 10:24N 22°28' E 113°53'0 0.0
2016-Jul-12 09:12N 22°28' E 113°53'0 0.0
2016-Jul-12 08:06N 22°28' E 113°53'0 0.0
2016-Jul-12 07:30N 22°28' E 113°53'0 0.0
2016-Jul-12 06:30N 22°28' E 113°53'0 0.0
2016-Jul-12 04:30N 22°28' E 113°53'0 0.0
2016-Jul-12 03:30N 22°28' E 113°53'0 0.0
2016-Jul-12 02:30N 22°28' E 113°53'4 3.8
2016-Jul-12 01:33N 22°25' E 113°53'9 8.8
2016-Jul-12 00:32N 22°21' E 114°02'24214.7
2016-Jul-11 08:06N 23°50' E 118°07'1220.3
2016-Jul-11 07:29N 24°01' E 118°14'1516.3
2016-Jul-11 06:33N 24°16' E 118°14'17 8.4
2016-Jul-11 04:34N 24°27' E 118°00'0 0.0
2016-Jul-11 03:33N 24°27' E 118°00'0 0.0
2016-Jul-11 02:28N 24°27' E 118°00'0 0.0
2016-Jul-11 01:33N 24°27' E 118°00'0 0.0
2016-Jul-11 00:34N 24°27' E 118°00'0 0.0
2016-Jul-10 23:34N 24°27' E 118°00'0 0.0
2016-Jul-10 22:33N 24°27' E 118°00'0 0.0
2016-Jul-10 21:33N 24°27' E 118°00'0 0.0
2016-Jul-10 20:33N 24°27' E 118°00'0 0.0
2016-Jul-10 19:31N 24°27' E 118°00'0 0.0
2016-Jul-10 18:31N 24°27' E 118°00'0 0.0
2016-Jul-10 17:24N 24°27' E 118°00'0 0.0
2016-Jul-10 16:33N 24°27' E 118°00'0 0.0
2016-Jul-10 15:33N 24°27' E 118°00'0 0.0
2016-Jul-10 14:30N 24°27' E 118°00'0 0.0
2016-Jul-10 13:30N 24°27' E 118°00'1 0.8
2016-Jul-10 12:33N 24°26' E 118°01'1010.2
2016-Jul-10 11:33N 24°21' E 118°10'1313.3
2016-Jul-10 10:34N 24°12' E 118°22'1715.4
2016-Jul-10 09:27N 24°17' E 118°40'2317.5
2016-Jul-10 08:09N 24°25' E 119°03'1118.4
2016-Jul-10 07:33N 24°31' E 119°13'  
2016-Jul-04 09:32N 30°33' E 122°46'1715.5
2016-Jul-04 08:27N 30°38' E 123°05'1917.2
2016-Jul-04 07:19N 30°43' E 123°27'  
Track history (hours):
 
Tides and Currents Weather Stations Pressure Air Temp Water Temp Dewpoint Dewpoint Depression Visibility Wind Speed Wind Dir Waves Ship Positions

CSCL Long Beach

Last reported at 2016-Jul-14 01:21 UTC. Time now 2016-Jul-24 02:56 UTC.
Position N 22°17' E 114°06'.
Warning: this ship's position is 10 days out of date.

Length 336.7 m; beam 45.6 m; draft 15 m.

Type: Ship. MMSI: 477883900.

Date/timePositionNaut miles runAvg speedWind from/ knotsBaromVisibWave heightAir tempDewpointWater temp
2016-Jul-14 01:21N 22°17' E 114°06'3 3.4
2016-Jul-14 00:28N 22°20' E 114°08'0 0.0
2016-Jul-13 22:16N 22°20' E 114°08'0 0.0
2016-Jul-13 21:04N 22°20' E 114°08'0 0.0
2016-Jul-13 20:16N 22°20' E 114°08'0 0.0
2016-Jul-13 19:28N 22°20' E 114°08'0 0.0
2016-Jul-13 16:28N 22°20' E 114°08'0 0.0
2016-Jul-13 15:28N 22°20' E 114°08'0 0.0
2016-Jul-13 14:10N 22°20' E 114°08'0 0.0
2016-Jul-13 12:28N 22°20' E 114°08'0 0.0
2016-Jul-13 11:22N 22°20' E 114°08'0 0.0
2016-Jul-13 06:04N 22°20' E 114°08'0 0.0
2016-Jul-13 05:33N 22°20' E 114°08'14 7.0
2016-Jul-13 03:33N 22°25' E 113°53'3 2.6
2016-Jul-13 02:18N 22°28' E 113°53'0 0.0
2016-Jul-13 01:30N 22°28' E 113°53'0 0.0
2016-Jul-12 23:30N 22°28' E 113°53'0 0.0
2016-Jul-12 22:18N 22°28' E 113°53'0 0.0
2016-Jul-12 21:30N 22°28' E 113°53'0 0.0
2016-Jul-12 20:24N 22°28' E 113°53'0 0.0
2016-Jul-12 19:24N 22°28' E 113°53'0 0.0
2016-Jul-12 18:30N 22°28' E 113°53'0 0.0
2016-Jul-12 17:30N 22°28' E 113°53'0 0.0
2016-Jul-12 16:06N 22°28' E 113°53'0 0.0
2016-Jul-12 15:24N 22°28' E 113°53'0 0.0
2016-Jul-12 14:24N 22°28' E 113°53'0 0.0
2016-Jul-12 13:30N 22°28' E 113°53'0 0.0
2016-Jul-12 12:24N 22°28' E 113°53'0 0.0
2016-Jul-12 11:24N 22°28' E 113°53'0 0.0
2016-Jul-12 10:24N 22°28' E 113°53'0 0.0
2016-Jul-12 09:12N 22°28' E 113°53'0 0.0
2016-Jul-12 08:06N 22°28' E 113°53'0 0.0
2016-Jul-12 07:30N 22°28' E 113°53'0 0.0
2016-Jul-12 06:30N 22°28' E 113°53'0 0.0
2016-Jul-12 04:30N 22°28' E 113°53'0 0.0
2016-Jul-12 03:30N 22°28' E 113°53'0 0.0
2016-Jul-12 02:30N 22°28' E 113°53'4 3.8
2016-Jul-12 01:33N 22°25' E 113°53'9 8.8
2016-Jul-12 00:32N 22°21' E 114°02'24214.7
2016-Jul-11 08:06N 23°50' E 118°07'1220.3
2016-Jul-11 07:29N 24°01' E 118°14'1516.3
2016-Jul-11 06:33N 24°16' E 118°14'17 8.4
2016-Jul-11 04:34N 24°27' E 118°00'0 0.0
2016-Jul-11 03:33N 24°27' E 118°00'0 0.0
2016-Jul-11 02:28N 24°27' E 118°00'0 0.0
2016-Jul-11 01:33N 24°27' E 118°00'0 0.0
2016-Jul-11 00:34N 24°27' E 118°00'0 0.0
2016-Jul-10 23:34N 24°27' E 118°00'0 0.0
2016-Jul-10 22:33N 24°27' E 118°00'0 0.0
2016-Jul-10 21:33N 24°27' E 118°00'0 0.0
2016-Jul-10 20:33N 24°27' E 118°00'0 0.0
2016-Jul-10 19:31N 24°27' E 118°00'0 0.0
2016-Jul-10 18:31N 24°27' E 118°00'0 0.0
2016-Jul-10 17:24N 24°27' E 118°00'0 0.0
2016-Jul-10 16:33N 24°27' E 118°00'0 0.0
2016-Jul-10 15:33N 24°27' E 118°00'0 0.0
2016-Jul-10 14:30N 24°27' E 118°00'0 0.0
2016-Jul-10 13:30N 24°27' E 118°00'1 0.8
2016-Jul-10 12:33N 24°26' E 118°01'1010.2
2016-Jul-10 11:33N 24°21' E 118°10'1313.3
2016-Jul-10 10:34N 24°12' E 118°22'1715.4
2016-Jul-10 09:27N 24°17' E 118°40'2317.5
2016-Jul-10 08:09N 24°25' E 119°03'1118.4
2016-Jul-10 07:33N 24°31' E 119°13'  
2016-Jul-04 09:32N 30°33' E 122°46'1715.5
2016-Jul-04 08:27N 30°38' E 123°05'1917.2
2016-Jul-04 07:19N 30°43' E 123°27'  

Dump ship's entire track history